Time;durP1;ratioP1;P1;durP2;ratioP2;P2;SDS_P1;SDS_P2;PMS_P1;PMS_P2;Temp;Humidity;BMP_temperature;BMP_pressure;BME280_temperature;BME280_humidity;BME280_pressure;Samples;Min_cycle;Max_cycle;Signal;HPM_P1;HPM_P2
2022/05/18 00:00:44;;;;;;;6.30;4.10;;;;;;;;;;5073508;28;20402;-59
2022/05/18 00:03:11;;;;;;;5.13;3.83;;;;;;;;;;5072431;28;20456;-59
2022/05/18 00:05:38;;;;;;;5.47;3.17;;;;;;;;;;5073672;28;21000;-59
2022/05/18 00:08:05;;;;;;;3.80;3.50;;;;;;;;;;5073740;28;20451;-59
2022/05/18 00:10:31;;;;;;;3.60;3.17;;;;;;;;;;5073916;28;20799;-60
2022/05/18 00:12:57;;;;;;;3.90;3.50;;;;;;;;;;5072881;28;20406;-60
2022/05/18 00:15:24;;;;;;;3.73;3.30;;;;;;;;;;5073579;28;20555;-60
2022/05/18 00:17:50;;;;;;;3.60;3.40;;;;;;;;;;5073642;28;20467;-59
2022/05/18 00:20:18;;;;;;;4.70;2.90;;;;;;;;;;5073477;28;20470;-60
2022/05/18 00:22:54;;;;;;;3.10;2.90;;;;;;;;;;5072646;28;20908;-60
2022/05/18 00:25:21;;;;;;;3.77;2.80;;;;;;;;;;5073255;28;20455;-59
2022/05/18 00:27:47;;;;;;;6.50;3.00;;;;;;;;;;5073296;28;21108;-59
2022/05/18 00:30:14;;;;;;;3.90;3.23;;;;;;;;;;5073356;28;20482;-59
2022/05/18 00:32:40;;;;;;;3.10;2.90;;;;;;;;;;5071950;28;20412;-60
2022/05/18 00:35:06;;;;;;;3.33;3.03;;;;;;;;;;5073169;28;20815;-59
2022/05/18 00:37:32;;;;;;;5.97;3.10;;;;;;;;;;5073167;28;20403;-60
2022/05/18 00:39:58;;;;;;;3.63;3.33;;;;;;;;;;5073138;28;20403;-59
2022/05/18 00:42:25;;;;;;;4.43;3.27;;;;;;;;;;5072389;28;20411;-60
2022/05/18 00:44:51;;;;;;;5.07;3.33;;;;;;;;;;5072910;28;20498;-60
2022/05/18 00:47:20;;;;;;;4.20;3.83;;;;;;;;;;5072838;28;20493;-60
2022/05/18 00:49:48;;;;;;;4.07;3.60;;;;;;;;;;5072826;28;20837;-58
2022/05/18 00:52:14;;;;;;;3.67;3.10;;;;;;;;;;5072056;28;20420;-58
2022/05/18 00:54:41;;;;;;;6.23;3.43;;;;;;;;;;5072855;28;20426;-58
2022/05/18 00:57:37;;;;;;;3.43;3.13;;;;;;;;;;5072788;28;20441;-58
2022/05/18 01:00:11;;;;;;;3.70;3.07;;;;;;;;;;5072132;28;20425;-58
2022/05/18 01:02:39;;;;;;;8.20;3.93;;;;;;;;;;5071143;28;20763;-60
2022/05/18 01:05:06;;;;;;;5.23;3.47;;;;;;;;;;5071849;28;20460;-60
2022/05/18 01:07:34;;;;;;;4.20;3.80;;;;;;;;;;5072486;28;20402;-59
2022/05/18 01:10:01;;;;;;;2.80;2.60;;;;;;;;;;5072399;28;20399;-59
2022/05/18 01:12:27;;;;;;;4.03;3.70;;;;;;;;;;5071808;28;20458;-59
2022/05/18 01:14:57;;;;;;;3.50;3.20;;;;;;;;;;5071206;28;20429;-60
2022/05/18 01:17:28;;;;;;;3.00;2.60;;;;;;;;;;5072407;28;20407;-60
2022/05/18 01:19:56;;;;;;;3.37;3.07;;;;;;;;;;5072238;28;20442;-59
2022/05/18 01:22:29;;;;;;;3.80;3.40;;;;;;;;;;5071643;28;20441;-59
2022/05/18 01:25:04;;;;;;;4.17;2.70;;;;;;;;;;5072015;28;20491;-59
2022/05/18 01:27:30;;;;;;;4.00;3.70;;;;;;;;;;5072251;28;20408;-59
2022/05/18 01:29:56;;;;;;;5.13;3.40;;;;;;;;;;5072111;28;20404;-59
2022/05/18 01:32:22;;;;;;;4.40;3.40;;;;;;;;;;5071475;28;20401;-59
2022/05/18 01:34:48;;;;;;;3.90;3.10;;;;;;;;;;5071164;28;20454;-58
2022/05/18 01:37:15;;;;;;;5.60;3.20;;;;;;;;;;5072199;28;20403;-59
2022/05/18 01:39:50;;;;;;;4.83;3.20;;;;;;;;;;5072016;28;20474;-59
2022/05/18 01:42:24;;;;;;;6.87;3.43;;;;;;;;;;5071387;28;20426;-59
2022/05/18 01:44:50;;;;;;;4.60;3.37;;;;;;;;;;5071528;28;20453;-60
2022/05/18 01:47:16;;;;;;;4.00;3.70;;;;;;;;;;5071599;28;20396;-59
2022/05/18 01:49:43;;;;;;;4.00;3.07;;;;;;;;;;5070608;28;20964;-59
2022/05/18 01:52:10;;;;;;;5.50;3.20;;;;;;;;;;5071206;28;20524;-59
2022/05/18 01:54:40;;;;;;;4.33;3.00;;;;;;;;;;5071816;28;20424;-59
2022/05/18 01:57:06;;;;;;;3.33;3.03;;;;;;;;;;5071959;28;20479;-59
2022/05/18 01:59:32;;;;;;;6.43;3.00;;;;;;;;;;5071852;28;20445;-59
2022/05/18 02:01:58;;;;;;;4.23;3.17;;;;;;;;;;5071662;28;20927;-59
2022/05/18 02:04:24;;;;;;;6.53;3.23;;;;;;;;;;5072251;28;20457;-60
2022/05/18 02:06:50;;;;;;;4.47;3.20;;;;;;;;;;5072641;28;20405;-59
2022/05/18 02:09:19;;;;;;;3.33;3.07;;;;;;;;;;5072788;28;20820;-59
2022/05/18 02:11:45;;;;;;;2.73;2.53;;;;;;;;;;5071872;28;20405;-60
2022/05/18 02:14:11;;;;;;;3.03;2.83;;;;;;;;;;5072192;28;20836;-60
2022/05/18 02:16:38;;;;;;;2.97;2.67;;;;;;;;;;5072303;28;20411;-59
2022/05/18 02:19:04;;;;;;;8.10;2.97;;;;;;;;;;5072241;28;20436;-60
2022/05/18 02:21:30;;;;;;;3.03;2.83;;;;;;;;;;5071827;28;20405;-59
2022/05/18 02:23:56;;;;;;;5.70;2.97;;;;;;;;;;5072356;28;20452;-59
2022/05/18 02:26:22;;;;;;;3.57;3.23;;;;;;;;;;5072063;28;20901;-60
2022/05/18 02:28:48;;;;;;;3.13;2.90;;;;;;;;;;5072223;28;20398;-60
2022/05/18 02:31:15;;;;;;;6.73;3.40;;;;;;;;;;5071873;28;20916;-60
2022/05/18 02:33:41;;;;;;;3.07;2.77;;;;;;;;;;5071379;28;20414;-60
2022/05/18 02:36:08;;;;;;;4.93;2.97;;;;;;;;;;5072400;28;20488;-59
2022/05/18 02:38:35;;;;;;;4.13;3.73;;;;;;;;;;5072138;28;20480;-59
2022/05/18 02:41:01;;;;;;;4.33;3.50;;;;;;;;;;5071164;28;20462;-60
2022/05/18 02:43:27;;;;;;;4.90;3.17;;;;;;;;;;5071453;28;20450;-59
2022/05/18 02:46:04;;;;;;;3.70;3.10;;;;;;;;;;5072394;28;20392;-60
2022/05/18 02:48:30;;;;;;;4.20;3.57;;;;;;;;;;5072180;28;20401;-60
2022/05/18 02:50:56;;;;;;;5.63;3.20;;;;;;;;;;5071513;28;20396;-59
2022/05/18 02:53:22;;;;;;;3.83;3.50;;;;;;;;;;5071682;28;20427;-60
2022/05/18 02:56:07;;;;;;;3.50;3.20;;;;;;;;;;5071981;28;20408;-60
2022/05/18 02:58:52;;;;;;;3.50;3.20;;;;;;;;;;5075802;28;20404;-60
2022/05/18 03:01:22;;;;;;;3.27;3.07;;;;;;;;;;5075321;28;20762;-60
2022/05/18 03:03:49;;;;;;;5.30;3.43;;;;;;;;;;5075461;28;20456;-59
2022/05/18 03:06:16;;;;;;;6.80;3.37;;;;;;;;;;5076267;28;20405;-60
2022/05/18 03:08:43;;;;;;;4.03;3.27;;;;;;;;;;5075690;28;20981;-60
2022/05/18 03:11:09;;;;;;;4.50;3.53;;;;;;;;;;5074812;28;20461;-59
2022/05/18 03:13:35;;;;;;;4.70;3.77;;;;;;;;;;5075255;28;20427;-59
2022/05/18 03:16:02;;;;;;;3.93;3.10;;;;;;;;;;5075503;28;20397;-59
2022/05/18 03:18:28;;;;;;;4.07;3.40;;;;;;;;;;5075351;28;20405;-60
2022/05/18 03:23:39;;;;;;;3.10;2.80;;;;;;;;;;5075053;28;20433;-60
2022/05/18 03:26:09;;;;;;;4.00;3.40;;;;;;;;;;5075520;28;20769;-60
2022/05/18 03:28:39;;;;;;;12.10;4.10;;;;;;;;;;5075230;28;20942;-60
2022/05/18 03:31:06;;;;;;;6.37;3.53;;;;;;;;;;5074654;28;20409;-60
2022/05/18 03:33:32;;;;;;;5.10;3.40;;;;;;;;;;5074443;28;20388;-60
2022/05/18 03:35:58;;;;;;;6.20;3.40;;;;;;;;;;5075522;28;20758;-59
2022/05/18 03:38:24;;;;;;;3.80;3.50;;;;;;;;;;5075056;28;20428;-60
2022/05/18 03:40:50;;;;;;;6.60;3.67;;;;;;;;;;5074549;28;20896;-59
2022/05/18 03:43:17;;;;;;;5.90;2.90;;;;;;;;;;5075115;28;20428;-60
2022/05/18 03:45:43;;;;;;;7.83;3.50;;;;;;;;;;5074985;28;20460;-60
2022/05/18 03:48:11;;;;;;;4.23;3.40;;;;;;;;;;5074973;28;20379;-60
2022/05/18 03:50:37;;;;;;;4.90;3.70;;;;;;;;;;5074851;28;20834;-60
2022/05/18 03:53:03;;;;;;;4.97;3.13;;;;;;;;;;5074146;28;20393;-60
2022/05/18 03:55:30;;;;;;;5.00;3.63;;;;;;;;;;5074494;28;20425;-59
2022/05/18 03:57:56;;;;;;;3.50;3.13;;;;;;;;;;5074826;28;20463;-60
2022/05/18 04:00:22;;;;;;;3.50;3.30;;;;;;;;;;5074936;28;20405;-59
2022/05/18 04:02:48;;;;;;;5.20;3.50;;;;;;;;;;5074051;28;20405;-59
2022/05/18 04:05:15;;;;;;;4.40;2.93;;;;;;;;;;5073656;28;20460;-59
2022/05/18 04:07:41;;;;;;;4.30;3.90;;;;;;;;;;5072420;28;20399;-59
2022/05/18 04:10:07;;;;;;;3.63;3.00;;;;;;;;;;5071108;28;20393;-59
2022/05/18 04:12:34;;;;;;;5.83;3.60;;;;;;;;;;5071202;28;20400;-59
2022/05/18 04:15:00;;;;;;;3.80;3.47;;;;;;;;;;5072879;28;20426;-59
2022/05/18 04:17:27;;;;;;;4.27;3.47;;;;;;;;;;5073776;28;20408;-60
2022/05/18 04:19:53;;;;;;;4.77;3.67;;;;;;;;;;5073657;28;20920;-60
2022/05/18 04:22:19;;;;;;;3.23;2.93;;;;;;;;;;5072945;28;20401;-60
2022/05/18 04:24:45;;;;;;;3.40;3.10;;;;;;;;;;5073391;28;20484;-60
2022/05/18 04:27:11;;;;;;;3.77;3.47;;;;;;;;;;5073441;28;20927;-60
2022/05/18 04:29:37;;;;;;;4.60;3.17;;;;;;;;;;5073337;28;20421;-60
2022/05/18 04:32:04;;;;;;;7.40;3.70;;;;;;;;;;5072912;28;20419;-59
2022/05/18 04:34:30;;;;;;;4.27;3.23;;;;;;;;;;5072287;28;20482;-60
2022/05/18 04:36:56;;;;;;;4.33;3.70;;;;;;;;;;5073263;28;20883;-59
2022/05/18 04:39:22;;;;;;;5.27;3.27;;;;;;;;;;5073123;28;20399;-60
2022/05/18 04:41:48;;;;;;;5.27;3.80;;;;;;;;;;5072563;28;20407;-59
2022/05/18 04:44:14;;;;;;;5.67;3.73;;;;;;;;;;5073089;28;20479;-60
2022/05/18 04:46:40;;;;;;;3.90;3.47;;;;;;;;;;5073149;28;20389;-59
2022/05/18 04:49:07;;;;;;;5.63;3.80;;;;;;;;;;5072966;28;20400;-60
2022/05/18 04:51:33;;;;;;;5.40;3.80;;;;;;;;;;5072146;28;20412;-60
2022/05/18 04:53:59;;;;;;;6.23;3.23;;;;;;;;;;5073094;28;20431;-60
2022/05/18 04:56:25;;;;;;;5.10;3.70;;;;;;;;;;5072868;28;20488;-60
2022/05/18 04:58:52;;;;;;;5.83;3.57;;;;;;;;;;5072792;28;20436;-60
2022/05/18 05:01:18;;;;;;;3.63;3.23;;;;;;;;;;5072158;28;20401;-60
2022/05/18 05:03:44;;;;;;;4.00;3.70;;;;;;;;;;5072628;28;20421;-60
2022/05/18 05:06:10;;;;;;;8.10;3.60;;;;;;;;;;5072579;28;20984;-60
2022/05/18 05:08:37;;;;;;;3.70;3.37;;;;;;;;;;5072611;28;20409;-60
2022/05/18 05:11:04;;;;;;;4.83;3.73;;;;;;;;;;5071929;28;20406;-60
2022/05/18 05:13:30;;;;;;;3.63;3.30;;;;;;;;;;5072501;28;21134;-60
2022/05/18 05:16:00;;;;;;;4.40;4.00;;;;;;;;;;5072581;28;20441;-59
2022/05/18 05:18:26;;;;;;;8.60;3.30;;;;;;;;;;5072348;28;20417;-60
2022/05/18 05:20:52;;;;;;;6.13;3.03;;;;;;;;;;5071158;28;20488;-59
2022/05/18 05:23:20;;;;;;;4.17;3.80;;;;;;;;;;5072389;28;20402;-60
2022/05/18 05:25:46;;;;;;;4.50;3.93;;;;;;;;;;5072277;28;21023;-59
2022/05/18 05:28:12;;;;;;;4.73;4.03;;;;;;;;;;5072578;28;20844;-60
2022/05/18 05:30:40;;;;;;;3.87;3.50;;;;;;;;;;5072261;28;20410;-60
2022/05/18 05:33:06;;;;;;;4.43;3.60;;;;;;;;;;5069937;28;20422;-60
2022/05/18 05:35:32;;;;;;;4.63;3.60;;;;;;;;;;5070506;28;20458;-60
2022/05/18 05:37:58;;;;;;;4.00;3.17;;;;;;;;;;5071724;28;20414;-59
2022/05/18 05:40:24;;;;;;;3.37;3.07;;;;;;;;;;5072035;28;20773;-60
2022/05/18 05:42:50;;;;;;;4.10;3.63;;;;;;;;;;5071444;28;20942;-60
2022/05/18 05:45:16;;;;;;;3.53;3.33;;;;;;;;;;5071785;28;20465;-60
2022/05/18 05:47:42;;;;;;;3.87;3.27;;;;;;;;;;5072303;28;20407;-59
2022/05/18 05:50:08;;;;;;;5.10;3.57;;;;;;;;;;5072207;28;21092;-61
2022/05/18 05:52:34;;;;;;;3.50;3.20;;;;;;;;;;5071411;28;20501;-61
2022/05/18 05:55:00;;;;;;;6.57;3.13;;;;;;;;;;5071970;28;20426;-60
2022/05/18 05:57:27;;;;;;;3.83;3.63;;;;;;;;;;5072013;28;20418;-60
2022/05/18 05:59:53;;;;;;;4.43;4.03;;;;;;;;;;5071033;28;20990;-61
2022/05/18 06:02:19;;;;;;;6.47;4.20;;;;;;;;;;5070820;28;20938;-61
2022/05/18 06:04:46;;;;;;;7.00;3.60;;;;;;;;;;5071812;28;20465;-61
2022/05/18 06:07:13;;;;;;;3.33;3.13;;;;;;;;;;5070642;28;20442;-61
2022/05/18 06:09:41;;;;;;;8.00;3.07;;;;;;;;;;5070508;28;20458;-61
2022/05/18 06:12:07;;;;;;;3.67;3.33;;;;;;;;;;5070492;28;20420;-60
2022/05/18 06:14:33;;;;;;;3.87;3.10;;;;;;;;;;5071207;28;20458;-60
2022/05/18 06:16:59;;;;;;;3.70;3.40;;;;;;;;;;5071039;28;20466;-61
2022/05/18 06:19:25;;;;;;;6.00;3.27;;;;;;;;;;5071304;28;20403;-60
2022/05/18 06:21:51;;;;;;;5.30;3.50;;;;;;;;;;5070249;28;20415;-60
2022/05/18 06:24:18;;;;;;;5.10;2.80;;;;;;;;;;5071135;28;20809;-60
2022/05/18 06:26:44;;;;;;;7.73;3.80;;;;;;;;;;5070457;28;20418;-60
2022/05/18 06:29:10;;;;;;;5.10;3.20;;;;;;;;;;5070626;28;20413;-60
2022/05/18 06:31:36;;;;;;;4.07;3.03;;;;;;;;;;5071485;28;20488;-60
2022/05/18 06:34:02;;;;;;;3.53;3.20;;;;;;;;;;5073450;28;20432;-60
2022/05/18 06:36:28;;;;;;;6.50;3.03;;;;;;;;;;5074691;28;20481;-60
2022/05/18 06:38:54;;;;;;;6.97;2.90;;;;;;;;;;5075083;28;20819;-60
2022/05/18 06:41:23;;;;;;;7.27;3.13;;;;;;;;;;5073999;28;20424;-60
2022/05/18 06:44:00;;;;;;;3.83;3.33;;;;;;;;;;5074941;28;20430;-60
2022/05/18 06:46:27;;;;;;;3.53;3.23;;;;;;;;;;5074613;28;20412;-60
2022/05/18 06:48:55;;;;;;;5.20;3.53;;;;;;;;;;5054867;28;20397;-60
2022/05/18 06:51:23;;;;;;;5.57;3.53;;;;;;;;;;5070598;28;20819;-60
2022/05/18 06:53:53;;;;;;;4.30;3.00;;;;;;;;;;5055652;28;20479;-60
2022/05/18 06:56:22;;;;;;;3.30;2.77;;;;;;;;;;5074474;28;20407;-61
2022/05/18 06:58:49;;;;;;;3.53;2.83;;;;;;;;;;5074553;28;20396;-61
2022/05/18 07:01:16;;;;;;;3.97;3.10;;;;;;;;;;5072068;28;20408;-61
2022/05/18 07:03:43;;;;;;;4.60;3.20;;;;;;;;;;5074421;28;20791;-60
2022/05/18 07:06:09;;;;;;;3.20;3.00;;;;;;;;;;5074108;28;20413;-61
2022/05/18 07:08:35;;;;;;;7.80;4.27;;;;;;;;;;5074125;28;20422;-60
2022/05/18 07:11:03;;;;;;;3.80;2.83;;;;;;;;;;5073511;28;20405;-61
2022/05/18 07:13:29;;;;;;;4.63;3.07;;;;;;;;;;5074274;28;20859;-61
2022/05/18 07:15:55;;;;;;;6.50;5.57;;;;;;;;;;5073448;28;20412;-60
2022/05/18 07:18:21;;;;;;;5.20;3.80;;;;;;;;;;5074125;28;20780;-60
2022/05/18 07:20:49;;;;;;;5.53;3.73;;;;;;;;;;5072159;28;20856;-59
2022/05/18 07:23:15;;;;;;;4.07;3.00;;;;;;;;;;5073845;28;20498;-61
2022/05/18 07:25:41;;;;;;;3.07;2.30;;;;;;;;;;5073889;28;20456;-61
2022/05/18 07:28:07;;;;;;;7.73;3.13;;;;;;;;;;5074123;28;20435;-60
2022/05/18 07:30:33;;;;;;;3.20;2.87;;;;;;;;;;5073987;28;20424;-60
2022/05/18 07:32:59;;;;;;;5.00;3.30;;;;;;;;;;5071656;28;21046;-60
2022/05/18 07:35:25;;;;;;;3.53;2.73;;;;;;;;;;5073752;28;20444;-61
2022/05/18 07:37:51;;;;;;;3.40;2.70;;;;;;;;;;5073482;28;20446;-61
2022/05/18 07:40:17;;;;;;;3.23;2.70;;;;;;;;;;5073848;28;20494;-61
2022/05/18 07:42:43;;;;;;;3.50;2.47;;;;;;;;;;5072654;28;20507;-60
2022/05/18 07:45:09;;;;;;;2.73;2.53;;;;;;;;;;5072603;28;20452;-60
2022/05/18 07:47:35;;;;;;;2.80;2.50;;;;;;;;;;5073799;28;20424;-60
2022/05/18 07:50:01;;;;;;;6.33;2.80;;;;;;;;;;5073468;28;20411;-60
2022/05/18 07:52:28;;;;;;;2.90;2.60;;;;;;;;;;5072722;28;20528;-60
2022/05/18 07:54:55;;;;;;;3.00;2.70;;;;;;;;;;5073747;28;20430;-60
2022/05/18 07:57:21;;;;;;;4.23;2.60;;;;;;;;;;5073514;28;20429;-61
2022/05/18 07:59:47;;;;;;;3.50;2.50;;;;;;;;;;5073540;28;20400;-61
2022/05/18 08:02:13;;;;;;;4.80;2.30;;;;;;;;;;5072684;28;20419;-61
2022/05/18 08:04:39;;;;;;;2.90;2.70;;;;;;;;;;5073211;28;20458;-61
2022/05/18 08:07:05;;;;;;;4.87;2.33;;;;;;;;;;5072980;28;20494;-61
2022/05/18 08:15:05;;;;;;;4.70;2.57;;;;;;;;;;5073117;28;20416;-61
2022/05/18 08:15:07;;;;;;;4.37;2.57;;;;;;;;;;5066852;28;20426;-62
2022/05/18 08:17:34;;;;;;;3.60;2.70;;;;;;;;;;5072927;28;20408;-61
2022/05/18 08:20:03;;;;;;;2.80;2.60;;;;;;;;;;5071040;28;20419;-61
2022/05/18 08:22:29;;;;;;;3.23;2.20;;;;;;;;;;5066343;28;20470;-62
2022/05/18 08:24:55;;;;;;;3.40;2.40;;;;;;;;;;5072465;28;20796;-62
2022/05/18 08:27:21;;;;;;;4.03;2.30;;;;;;;;;;5070528;28;20759;-61
2022/05/18 08:29:47;;;;;;;4.20;2.60;;;;;;;;;;5072863;28;20431;-61
2022/05/18 08:32:13;;;;;;;2.57;2.20;;;;;;;;;;5072249;28;20448;-61
2022/05/18 08:34:38;;;;;;;8.50;2.20;;;;;;;;;;5071202;28;20432;-62
2022/05/18 08:37:04;;;;;;;2.50;2.40;;;;;;;;;;5071935;28;20455;-62
2022/05/18 08:39:30;;;;;;;3.70;2.27;;;;;;;;;;5072280;28;20413;-62
2022/05/18 08:41:58;;;;;;;2.33;1.97;;;;;;;;;;5071601;28;20420;-63
2022/05/18 08:44:28;;;;;;;2.40;1.90;;;;;;;;;;5070965;28;20456;-62
2022/05/18 08:47:07;;;;;;;4.70;2.80;;;;;;;;;;5072433;28;20413;-62
2022/05/18 08:49:42;;;;;;;3.77;2.57;;;;;;;;;;5072487;28;20401;-61
2022/05/18 08:52:14;;;;;;;2.83;2.13;;;;;;;;;;5071132;28;20432;-62
2022/05/18 08:54:49;;;;;;;2.37;2.20;;;;;;;;;;5072161;28;20997;-63
2022/05/18 08:57:24;;;;;;;2.20;2.10;;;;;;;;;;5072610;28;20512;-61
2022/05/18 08:59:53;;;;;;;2.37;2.20;;;;;;;;;;5072402;28;20408;-62
2022/05/18 09:02:27;;;;;;;1.93;1.73;;;;;;;;;;5071466;28;20478;-62
2022/05/18 09:04:59;;;;;;;2.00;1.90;;;;;;;;;;5071706;28;20555;-62
2022/05/18 09:07:27;;;;;;;3.07;2.40;;;;;;;;;;5072075;28;20409;-62
2022/05/18 09:10:13;;;;;;;4.27;2.37;;;;;;;;;;5072211;28;20818;-62
2022/05/18 09:12:40;;;;;;;2.63;2.23;;;;;;;;;;5071334;28;20491;-62
2022/05/18 09:15:07;;;;;;;2.93;2.53;;;;;;;;;;5071671;28;20481;-62
2022/05/18 09:17:40;;;;;;;2.30;2.20;;;;;;;;;;5071923;28;20416;-62
2022/05/18 09:20:07;;;;;;;3.30;2.40;;;;;;;;;;5071847;28;20416;-63
2022/05/18 09:22:33;;;;;;;3.43;2.57;;;;;;;;;;5070741;28;20446;-62
2022/05/18 09:25:02;;;;;;;2.33;2.13;;;;;;;;;;5071217;28;20831;-62
2022/05/18 09:27:34;;;;;;;5.47;2.50;;;;;;;;;;5071740;28;20186;-62
2022/05/18 09:30:03;;;;;;;2.90;2.43;;;;;;;;;;5071675;28;20411;-63
2022/05/18 09:32:35;;;;;;;3.00;1.90;;;;;;;;;;5071298;28;20424;-62
2022/05/18 09:35:19;;;;;;;2.40;2.20;;;;;;;;;;5070333;28;20540;-62
2022/05/18 09:37:51;;;;;;;2.10;2.00;;;;;;;;;;5071794;28;20969;-62
2022/05/18 09:40:23;;;;;;;2.40;2.10;;;;;;;;;;5071536;28;20416;-63
2022/05/18 09:42:58;;;;;;;2.17;1.83;;;;;;;;;;5071736;28;20396;-62
2022/05/18 09:45:26;;;;;;;2.73;2.30;;;;;;;;;;5069061;28;20463;-62
2022/05/18 09:47:56;;;;;;;2.00;1.90;;;;;;;;;;5071363;28;20419;-62
2022/05/18 09:50:22;;;;;;;2.43;2.20;;;;;;;;;;5071913;28;20397;-62
2022/05/18 09:52:49;;;;;;;2.60;2.40;;;;;;;;;;5071097;28;20431;-62
2022/05/18 09:55:17;;;;;;;3.20;2.50;;;;;;;;;;5071798;28;20436;-62
2022/05/18 09:57:46;;;;;;;4.33;2.43;;;;;;;;;;5071511;28;20412;-62
2022/05/18 10:00:33;;;;;;;4.40;2.20;;;;;;;;;;5071459;28;20419;-62
2022/05/18 10:08:46;;;;;;;2.70;2.17;;;;;;;;;;5064641;28;20400;-61
2022/05/18 10:11:17;;;;;;;1.97;1.83;;;;;;;;;;5071009;28;20439;-61
2022/05/18 10:14:03;;;;;;;2.57;2.33;;;;;;;;;;5071394;28;20432;-62
2022/05/18 10:16:33;;;;;;;6.80;2.07;;;;;;;;;;5066371;28;20425;-62
2022/05/18 10:19:00;;;;;;;2.40;1.97;;;;;;;;;;5070839;28;20469;-61
2022/05/18 10:21:42;;;;;;;2.43;1.83;;;;;;;;;;5070525;28;20911;-62
2022/05/18 10:24:25;;;;;;;4.47;3.13;;;;;;;;;;5053996;28;20467;-61
2022/05/18 10:27:10;;;;;;;2.47;2.27;;;;;;;;;;5071130;28;20420;-62
2022/05/18 10:29:36;;;;;;;3.67;2.23;;;;;;;;;;5071232;28;20416;-62
2022/05/18 10:32:10;;;;;;;2.60;1.97;;;;;;;;;;5070417;28;20458;-62
2022/05/18 10:34:42;;;;;;;2.40;2.20;;;;;;;;;;5049999;28;20437;-63
2022/05/18 10:37:10;;;;;;;2.40;2.20;;;;;;;;;;5060645;28;20416;-62
2022/05/18 10:39:38;;;;;;;2.20;2.00;;;;;;;;;;5071149;28;20412;-62
2022/05/18 10:42:17;;;;;;;2.20;2.00;;;;;;;;;;5070226;28;20417;-62
2022/05/18 10:44:44;;;;;;;2.37;2.27;;;;;;;;;;5071132;28;20455;-61
2022/05/18 10:47:17;;;;;;;2.00;1.90;;;;;;;;;;5071016;28;20416;-62
2022/05/18 10:49:44;;;;;;;2.10;2.00;;;;;;;;;;5070975;28;20416;-61
2022/05/18 10:52:13;;;;;;;4.00;2.10;;;;;;;;;;5070163;28;20920;-62
2022/05/18 10:54:40;;;;;;;2.57;2.30;;;;;;;;;;5071255;28;20481;-62
2022/05/18 10:57:11;;;;;;;3.13;2.10;;;;;;;;;;5070946;28;20421;-62
2022/05/18 10:59:42;;;;;;;2.23;2.03;;;;;;;;;;5071123;28;20448;-63
2022/05/18 11:02:28;;;;;;;2.23;1.97;;;;;;;;;;5070324;28;20451;-62
2022/05/18 11:05:00;;;;;;;2.53;2.33;;;;;;;;;;5070804;28;20456;-63
2022/05/18 11:07:26;;;;;;;4.67;2.10;;;;;;;;;;5070769;28;20554;-63
2022/05/18 11:09:52;;;;;;;3.10;2.07;;;;;;;;;;5070683;28;20418;-63
2022/05/18 11:12:24;;;;;;;5.10;1.90;;;;;;;;;;5070055;28;20452;-62
2022/05/18 11:14:59;;;;;;;3.30;2.30;;;;;;;;;;5057530;28;20451;-62
2022/05/18 11:17:25;;;;;;;2.03;1.90;;;;;;;;;;5070566;28;20407;-62
2022/05/18 11:20:03;;;;;;;2.03;1.70;;;;;;;;;;5073226;28;20419;-62
2022/05/18 11:22:29;;;;;;;2.10;2.00;;;;;;;;;;5073199;28;20927;-62
2022/05/18 11:25:02;;;;;;;2.70;2.50;;;;;;;;;;5073637;28;20452;-63
2022/05/18 11:27:33;;;;;;;2.47;2.27;;;;;;;;;;5074074;28;20537;-62
2022/05/18 11:29:59;;;;;;;2.10;2.00;;;;;;;;;;5074159;28;20831;-63
2022/05/18 11:32:31;;;;;;;2.07;1.97;;;;;;;;;;5072148;28;20503;-62
2022/05/18 11:35:16;;;;;;;1.90;1.80;;;;;;;;;;5072495;28;20219;-62
2022/05/18 11:37:42;;;;;;;1.83;1.73;;;;;;;;;;5073981;28;20415;-62
2022/05/18 11:40:11;;;;;;;2.10;1.90;;;;;;;;;;5073941;28;20776;-62
2022/05/18 11:42:49;;;;;;;2.27;2.07;;;;;;;;;;5073675;28;20205;-63
2022/05/18 11:45:30;;;;;;;2.77;1.90;;;;;;;;;;5073651;28;20463;-63
2022/05/18 11:47:56;;;;;;;1.83;1.70;;;;;;;;;;5074332;28;20916;-64
2022/05/18 11:50:28;;;;;;;2.87;2.03;;;;;;;;;;5074820;28;20407;-63
2022/05/18 11:53:06;;;;;;;2.13;1.60;;;;;;;;;;5073237;28;20277;-64
2022/05/18 11:55:35;;;;;;;1.77;1.67;;;;;;;;;;5073500;28;20470;-62
2022/05/18 11:58:04;;;;;;;2.17;1.77;;;;;;;;;;5072613;28;20424;-62
2022/05/18 12:03:16;;;;;;;2.63;1.83;;;;;;;;;;5071601;28;20488;-62
2022/05/18 12:06:01;;;;;;;2.20;2.00;;;;;;;;;;5073039;28;20945;-62
2022/05/18 12:08:46;;;;;;;4.20;1.83;;;;;;;;;;5073081;28;20412;-62
2022/05/18 12:11:21;;;;;;;1.50;1.40;;;;;;;;;;5072898;28;20412;-62
2022/05/18 12:14:04;;;;;;;2.27;1.50;;;;;;;;;;5073375;28;20438;-62
2022/05/18 12:16:39;;;;;;;6.00;1.90;;;;;;;;;;5057553;28;20408;-62
2022/05/18 12:19:11;;;;;;;1.40;1.30;;;;;;;;;;5070347;28;20412;-62
2022/05/18 12:21:41;;;;;;;1.70;1.60;;;;;;;;;;5073354;28;20911;-62
2022/05/18 12:24:08;;;;;;;8.63;2.10;;;;;;;;;;5072655;28;20443;-63
2022/05/18 12:26:35;;;;;;;6.70;1.80;;;;;;;;;;5073135;28;20423;-62
2022/05/18 12:29:04;;;;;;;2.13;1.67;;;;;;;;;;5065503;28;20422;-63
2022/05/18 12:31:31;;;;;;;2.50;1.73;;;;;;;;;;5072613;28;20416;-63
2022/05/18 12:34:03;;;;;;;1.90;1.77;;;;;;;;;;5073432;28;20490;-63
2022/05/18 12:36:33;;;;;;;1.90;1.80;;;;;;;;;;5073192;28;20826;-62
2022/05/18 12:39:12;;;;;;;1.90;1.60;;;;;;;;;;5073372;28;20455;-63
2022/05/18 12:41:42;;;;;;;2.53;1.50;;;;;;;;;;5072846;28;20404;-64
2022/05/18 12:44:25;;;;;;;1.60;1.30;;;;;;;;;;5073496;28;20427;-63
2022/05/18 12:46:57;;;;;;;1.60;1.50;;;;;;;;;;5073320;28;20404;-63
2022/05/18 12:49:30;;;;;;;1.63;1.53;;;;;;;;;;5073342;28;20434;-63
2022/05/18 12:52:05;;;;;;;3.80;1.83;;;;;;;;;;5073081;28;20836;-62
2022/05/18 12:54:33;;;;;;;2.20;1.90;;;;;;;;;;5073300;28;20435;-63
2022/05/18 12:57:05;;;;;;;4.07;2.20;;;;;;;;;;5073224;28;20404;-63
2022/05/18 12:59:45;;;;;;;3.13;1.80;;;;;;;;;;5071993;28;20764;-63
2022/05/18 13:02:19;;;;;;;1.63;1.53;;;;;;;;;;5072507;28;20407;-63
2022/05/18 13:04:46;;;;;;;6.20;1.97;;;;;;;;;;5072876;28;20513;-63
2022/05/18 13:07:19;;;;;;;3.60;2.00;;;;;;;;;;5073370;28;20396;-61
2022/05/18 13:09:46;;;;;;;2.70;2.10;;;;;;;;;;5073305;28;20796;-61
2022/05/18 13:12:19;;;;;;;1.63;1.50;;;;;;;;;;5073238;28;20392;-61
2022/05/18 13:14:59;;;;;;;2.70;1.60;;;;;;;;;;5074613;28;20931;-61
2022/05/18 13:17:40;;;;;;;1.90;1.77;;;;;;;;;;5074995;28;20478;-61
2022/05/18 13:20:16;;;;;;;1.80;1.70;;;;;;;;;;5074573;28;20479;-61
2022/05/18 13:22:46;;;;;;;1.50;1.40;;;;;;;;;;5073300;28;20399;-60
2022/05/18 13:25:12;;;;;;;2.17;1.80;;;;;;;;;;5073905;28;20463;-60
2022/05/18 13:27:40;;;;;;;1.47;1.37;;;;;;;;;;5073169;28;21064;-61
2022/05/18 13:30:08;;;;;;;3.47;1.50;;;;;;;;;;5071789;28;20828;-61
2022/05/18 13:32:36;;;;;;;3.60;1.70;;;;;;;;;;5072344;28;20452;-61
2022/05/18 13:35:08;;;;;;;1.63;1.53;;;;;;;;;;5070323;28;20561;-61
2022/05/18 13:37:34;;;;;;;1.57;1.47;;;;;;;;;;5068729;28;20420;-60
2022/05/18 13:39:59;;;;;;;2.80;2.10;;;;;;;;;;5072007;28;20412;-60
2022/05/18 13:42:29;;;;;;;2.13;1.57;;;;;;;;;;5070332;28;20253;-60
2022/05/18 13:45:03;;;;;;;2.40;1.80;;;;;;;;;;5071578;28;20212;-60
2022/05/18 13:47:31;;;;;;;3.53;1.60;;;;;;;;;;5070327;28;20408;-61
2022/05/18 13:50:00;;;;;;;2.97;1.80;;;;;;;;;;5072232;28;20419;-60
2022/05/18 13:52:28;;;;;;;1.80;1.70;;;;;;;;;;5071976;28;20428;-60
2022/05/18 13:54:59;;;;;;;1.90;1.80;;;;;;;;;;5070928;28;20864;-61
2022/05/18 13:57:29;;;;;;;1.70;1.60;;;;;;;;;;5072194;28;20503;-61
2022/05/18 13:59:57;;;;;;;2.80;1.83;;;;;;;;;;5071764;28;20455;-60
2022/05/18 14:02:29;;;;;;;2.07;1.97;;;;;;;;;;5070989;28;20470;-60
2022/05/18 14:04:58;;;;;;;2.77;1.60;;;;;;;;;;5072318;28;20501;-61
2022/05/18 14:07:26;;;;;;;1.83;1.67;;;;;;;;;;5071685;28;20424;-60
2022/05/18 14:09:52;;;;;;;2.03;1.23;;;;;;;;;;5071280;28;20467;-61
2022/05/18 14:12:21;;;;;;;1.73;1.63;;;;;;;;;;5070497;28;20821;-60
2022/05/18 14:14:50;;;;;;;2.13;1.60;;;;;;;;;;5069641;28;20781;-61
2022/05/18 14:17:19;;;;;;;3.47;2.50;;;;;;;;;;5070772;28;20412;-61
2022/05/18 14:19:46;;;;;;;1.70;1.60;;;;;;;;;;5067627;28;20420;-61
2022/05/18 14:22:14;;;;;;;2.67;2.47;;;;;;;;;;5070988;28;20405;-61
2022/05/18 14:24:44;;;;;;;2.30;2.10;;;;;;;;;;5071325;28;20455;-61
2022/05/18 14:27:13;;;;;;;2.10;1.57;;;;;;;;;;5071044;28;20415;-61
2022/05/18 14:29:43;;;;;;;2.50;1.73;;;;;;;;;;5071117;28;20392;-60
2022/05/18 14:32:10;;;;;;;1.60;1.50;;;;;;;;;;5069819;28;20401;-60
2022/05/18 14:34:43;;;;;;;17.03;2.67;;;;;;;;;;5071154;28;20511;-60
2022/05/18 14:37:12;;;;;;;2.00;1.57;;;;;;;;;;5071534;28;20778;-60
2022/05/18 14:39:43;;;;;;;1.80;1.70;;;;;;;;;;5071589;28;20400;-60
2022/05/18 14:42:10;;;;;;;2.67;2.27;;;;;;;;;;5071047;28;20569;-61
2022/05/18 14:44:36;;;;;;;2.17;1.97;;;;;;;;;;5071336;28;20463;-62
2022/05/18 14:47:07;;;;;;;1.87;1.77;;;;;;;;;;5071658;28;20408;-62
2022/05/18 14:49:37;;;;;;;2.43;1.43;;;;;;;;;;5071447;28;20198;-62
2022/05/18 14:52:05;;;;;;;1.73;1.57;;;;;;;;;;5070762;28;20926;-62
2022/05/18 14:54:31;;;;;;;2.53;1.70;;;;;;;;;;5075361;28;20931;-62
2022/05/18 14:56:59;;;;;;;1.60;1.50;;;;;;;;;;5075125;28;20404;-61
2022/05/18 14:59:25;;;;;;;1.87;1.67;;;;;;;;;;5075469;28;20208;-61
2022/05/18 15:01:54;;;;;;;1.70;1.60;;;;;;;;;;5074705;28;20411;-61
2022/05/18 15:04:28;;;;;;;2.37;2.03;;;;;;;;;;5075180;28;20811;-61
2022/05/18 15:06:56;;;;;;;3.67;1.83;;;;;;;;;;5067960;28;20930;-61